createdAt,value
2024-03-12T00:00:16.513Z,42.000000
2024-03-12T00:05:16.475Z,42.000000
2024-03-12T00:10:16.812Z,42.000000
2024-03-12T00:15:16.519Z,42.100000
2024-03-12T00:20:16.524Z,42.000000
2024-03-12T00:25:16.543Z,42.000000
2024-03-12T00:30:16.519Z,42.000000
2024-03-12T00:35:16.530Z,42.000000
2024-03-12T00:40:16.573Z,42.000000
2024-03-12T00:45:16.761Z,42.000000
2024-03-12T00:50:16.814Z,42.000000
2024-03-12T00:55:16.548Z,41.900000
2024-03-12T01:00:16.605Z,41.900000
2024-03-12T01:05:16.542Z,41.900000
2024-03-12T01:10:16.702Z,41.900000
2024-03-12T01:15:16.729Z,41.800000
2024-03-12T01:20:16.752Z,41.700000
2024-03-12T01:25:16.768Z,41.700000
2024-03-12T01:30:16.610Z,41.600000
2024-03-12T01:35:16.586Z,41.600000
2024-03-12T01:40:16.825Z,41.600000
2024-03-12T01:45:16.640Z,41.600000
2024-03-12T01:50:16.682Z,41.600000
2024-03-12T01:55:16.887Z,41.500000
2024-03-12T02:00:16.632Z,41.500000
2024-03-12T02:05:16.650Z,41.400000
2024-03-12T02:10:16.725Z,41.500000
2024-03-12T02:15:16.913Z,41.500000
2024-03-12T02:20:16.890Z,41.500000
2024-03-12T02:25:16.740Z,41.500000
2024-03-12T02:30:16.866Z,41.400000
2024-03-12T02:35:17.435Z,41.400000
2024-03-12T02:40:17.595Z,41.300000
2024-03-12T02:45:17.981Z,41.300000
2024-03-12T02:50:17.446Z,41.200000
2024-03-12T02:55:16.774Z,41.200000
2024-03-12T03:00:16.996Z,41.200000
2024-03-12T03:05:16.944Z,41.000000
2024-03-12T03:10:16.982Z,41.000000
2024-03-12T03:15:16.958Z,40.900000
2024-03-12T03:20:17.179Z,40.800000
2024-03-12T03:25:18.978Z,40.600000
2024-03-12T03:30:16.785Z,40.600000
2024-03-12T03:35:18.917Z,40.400000
2024-03-12T03:40:17.076Z,40.400000
2024-03-12T03:45:17.056Z,40.400000
2024-03-12T03:50:16.827Z,40.400000
2024-03-12T03:55:16.812Z,40.300000
2024-03-12T04:00:16.764Z,40.300000
2024-03-12T04:05:16.344Z,40.200000
2024-03-12T04:10:16.480Z,40.200000
2024-03-12T04:15:16.394Z,40.100000
2024-03-12T04:20:16.377Z,40.000000
2024-03-12T04:25:16.481Z,39.900000
2024-03-12T04:30:16.403Z,39.800000
2024-03-12T04:35:16.677Z,39.800000
2024-03-12T04:40:16.561Z,39.700000
2024-03-12T04:45:16.450Z,39.600000
2024-03-12T04:50:16.476Z,39.500000
2024-03-12T04:55:16.484Z,39.400000
2024-03-12T05:00:17.208Z,39.300000
2024-03-12T05:05:16.478Z,39.300000
2024-03-12T05:10:16.613Z,39.200000
2024-03-12T05:15:16.713Z,39.200000
2024-03-12T05:20:16.510Z,39.100000
2024-03-12T05:25:16.566Z,39.000000
2024-03-12T05:30:16.672Z,39.000000
2024-03-12T05:35:16.525Z,39.000000
2024-03-12T05:40:16.803Z,38.900000
2024-03-12T05:45:16.532Z,38.800000
2024-03-12T05:50:16.513Z,38.800000
2024-03-12T05:55:16.906Z,38.800000
2024-03-12T06:00:16.532Z,38.800000
2024-03-12T06:05:18.723Z,38.700000
2024-03-12T06:10:16.661Z,38.600000
2024-03-12T06:15:16.574Z,38.600000
2024-03-12T06:20:16.767Z,38.600000
2024-03-12T06:25:16.710Z,38.600000
2024-03-12T06:30:16.782Z,38.500000
2024-03-12T06:35:16.615Z,38.500000
2024-03-12T06:40:16.846Z,38.400000
2024-03-12T06:45:16.653Z,38.300000
2024-03-12T06:50:16.681Z,38.200000
2024-03-12T06:55:17.405Z,38.200000
2024-03-12T07:00:16.694Z,38.200000
2024-03-12T07:05:16.671Z,38.100000
2024-03-12T07:10:16.929Z,38.000000
2024-03-12T07:15:16.687Z,37.900000
2024-03-12T07:20:16.902Z,37.900000
2024-03-12T07:25:18.891Z,37.900000
2024-03-12T07:30:16.977Z,37.900000
2024-03-12T07:35:16.699Z,37.900000
2024-03-12T07:40:17.460Z,37.900000
2024-03-12T07:45:16.819Z,37.900000
2024-03-12T07:50:16.739Z,37.900000
2024-03-12T07:55:16.999Z,37.900000
2024-03-12T08:00:16.802Z,37.800000
2024-03-12T08:05:16.836Z,37.700000
2024-03-12T08:10:16.992Z,37.700000
2024-03-12T08:15:17.075Z,37.700000
2024-03-12T08:20:16.806Z,37.700000
2024-03-12T08:25:18.735Z,37.600000
2024-03-12T08:30:16.917Z,37.500000
2024-03-12T08:35:16.866Z,37.400000
2024-03-12T08:40:17.085Z,37.400000
2024-03-12T08:45:18.016Z,37.300000
2024-03-12T08:50:18.950Z,37.300000
2024-03-12T08:55:17.136Z,37.200000
2024-03-12T09:00:16.905Z,37.100000
2024-03-12T09:05:16.861Z,37.100000
2024-03-12T09:10:17.077Z,37.100000
2024-03-12T09:15:19.044Z,37.000000
2024-03-12T09:20:16.944Z,37.000000
2024-03-12T09:25:19.424Z,36.900000
2024-03-12T09:30:16.942Z,36.900000
2024-03-12T09:35:17.110Z,36.900000
2024-03-12T09:40:17.318Z,36.900000
2024-03-12T09:45:17.265Z,36.900000
2024-03-12T09:50:17.140Z,36.900000
2024-03-12T09:55:17.685Z,37.100000
2024-03-12T10:00:17.002Z,37.200000
2024-03-12T10:05:16.973Z,37.300000
2024-03-12T10:10:17.103Z,37.400000
2024-03-12T10:15:17.029Z,37.400000
2024-03-12T10:20:17.379Z,37.400000
2024-03-12T10:25:17.240Z,37.400000
2024-03-12T10:30:17.208Z,37.400000
2024-03-12T10:35:17.200Z,37.300000
2024-03-12T10:40:17.148Z,37.200000
2024-03-12T10:45:17.127Z,37.200000
2024-03-12T10:50:17.058Z,37.200000
2024-03-12T10:55:17.130Z,37.200000
2024-03-12T11:00:17.090Z,37.100000
2024-03-12T11:05:17.069Z,37.100000
2024-03-12T11:10:17.293Z,37.100000
2024-03-12T11:15:17.201Z,37.100000
2024-03-12T11:20:17.118Z,37.100000
2024-03-12T11:25:17.410Z,37.100000
2024-03-12T11:30:17.158Z,37.100000
2024-03-12T11:35:17.350Z,37.100000
2024-03-12T11:40:17.259Z,37.200000
2024-03-12T11:45:17.224Z,37.300000
2024-03-12T11:50:17.336Z,37.400000
2024-03-12T11:55:17.292Z,37.700000
2024-03-12T12:00:17.187Z,37.900000
2024-03-12T12:05:17.208Z,38.100000
2024-03-12T12:10:15.438Z,38.400000
2024-03-12T12:15:15.202Z,38.700000
2024-03-12T12:20:16.504Z,38.900000
2024-03-12T12:25:15.332Z,39.100000
2024-03-12T12:30:15.211Z,39.300000
2024-03-12T12:35:15.513Z,39.600000
2024-03-12T12:40:15.872Z,39.900000
2024-03-12T12:45:15.424Z,40.200000
2024-03-12T12:50:15.307Z,40.500000
2024-03-12T12:55:15.380Z,40.800000
2024-03-12T13:00:15.327Z,41.100000
2024-03-12T13:05:15.328Z,41.300000
2024-03-12T13:10:15.386Z,41.600000
2024-03-12T13:15:15.547Z,42.000000
2024-03-12T13:20:15.348Z,42.400000
2024-03-12T13:25:15.526Z,42.800000
2024-03-12T13:30:15.380Z,43.100000
2024-03-12T13:35:15.350Z,43.400000
2024-03-12T13:40:15.470Z,43.900000
2024-03-12T13:45:15.621Z,44.000000
2024-03-12T13:50:15.397Z,44.100000
2024-03-12T13:55:15.580Z,44.300000
2024-03-12T14:00:15.437Z,44.500000
2024-03-12T14:05:15.861Z,45.000000
2024-03-12T14:10:15.673Z,45.000000
2024-03-12T14:15:15.410Z,45.200000
2024-03-12T14:20:15.481Z,45.800000
2024-03-12T14:25:15.554Z,45.400000
2024-03-12T14:30:15.715Z,45.700000
2024-03-12T14:35:15.643Z,45.900000
2024-03-12T14:40:15.561Z,46.300000
2024-03-12T14:45:15.479Z,46.500000
2024-03-12T14:50:15.461Z,46.900000
2024-03-12T14:55:15.593Z,47.100000
2024-03-12T15:00:15.534Z,46.900000
2024-03-12T15:05:15.883Z,47.400000
2024-03-12T15:10:15.650Z,47.300000
2024-03-12T15:15:15.512Z,47.800000
2024-03-12T15:20:16.475Z,47.600000
2024-03-12T15:25:15.732Z,48.000000
2024-03-12T15:30:15.612Z,48.200000
2024-03-12T15:35:15.824Z,48.500000
2024-03-12T15:40:15.608Z,48.300000
2024-03-12T15:45:15.550Z,48.100000
2024-03-12T15:50:15.807Z,48.500000
2024-03-12T15:55:16.172Z,48.800000
2024-03-12T16:00:15.870Z,49.400000
2024-03-12T16:05:15.650Z,49.600000
2024-03-12T16:10:16.024Z,50.200000
2024-03-12T16:15:15.842Z,49.700000
2024-03-12T16:20:16.434Z,50.100000
2024-03-12T16:25:15.842Z,50.100000
2024-03-12T16:30:16.415Z,50.400000
2024-03-12T16:35:16.568Z,50.900000
2024-03-12T16:40:15.898Z,51.100000
2024-03-12T16:45:15.889Z,50.100000
2024-03-12T16:50:15.705Z,51.000000
2024-03-12T16:55:15.755Z,51.300000
2024-03-12T17:00:15.991Z,51.900000
2024-03-12T17:05:15.799Z,51.700000
2024-03-12T17:10:16.075Z,51.500000
2024-03-12T17:15:15.896Z,51.900000
2024-03-12T17:20:17.796Z,52.600000
2024-03-12T17:25:15.793Z,52.400000
2024-03-12T17:30:15.757Z,52.200000
2024-03-12T17:35:15.775Z,52.500000
2024-03-12T17:40:16.402Z,52.600000
2024-03-12T17:45:15.837Z,52.600000
2024-03-12T17:50:16.008Z,52.900000
2024-03-12T17:55:15.869Z,52.900000
2024-03-12T18:00:15.836Z,52.900000
2024-03-12T18:05:15.796Z,53.400000
2024-03-12T18:10:16.061Z,54.000000
2024-03-12T18:15:16.136Z,53.500000
2024-03-12T18:20:15.857Z,53.200000
2024-03-12T18:25:15.902Z,53.400000
2024-03-12T18:30:15.917Z,53.100000
2024-03-12T18:35:15.930Z,53.000000
2024-03-12T18:40:16.113Z,52.800000
2024-03-12T18:45:16.134Z,53.500000
2024-03-12T18:50:15.946Z,53.900000
2024-03-12T18:55:16.028Z,53.900000
2024-03-12T19:00:16.075Z,53.800000
2024-03-12T19:05:16.083Z,54.000000
2024-03-12T19:10:16.129Z,54.000000
2024-03-12T19:15:16.389Z,54.100000
2024-03-12T19:20:16.235Z,54.500000
2024-03-12T19:25:16.020Z,54.300000
2024-03-12T19:30:16.170Z,54.200000
2024-03-12T19:35:15.973Z,54.400000
2024-03-12T19:40:16.159Z,54.900000
2024-03-12T19:45:16.014Z,54.600000
2024-03-12T19:50:16.130Z,54.800000
2024-03-12T19:55:16.101Z,54.800000
2024-03-12T20:00:15.973Z,54.600000
2024-03-12T20:05:16.198Z,54.800000
2024-03-12T20:10:16.089Z,54.800000
2024-03-12T20:15:15.999Z,55.000000
2024-03-12T20:20:16.281Z,55.400000
2024-03-12T20:25:16.255Z,55.000000
2024-03-12T20:30:16.081Z,55.000000
2024-03-12T20:35:16.232Z,54.900000
2024-03-12T20:40:16.115Z,55.300000
2024-03-12T20:45:16.212Z,55.500000
2024-03-12T20:50:16.088Z,55.700000
2024-03-12T20:55:16.477Z,55.600000
2024-03-12T21:00:16.091Z,56.100000
2024-03-12T21:05:16.805Z,55.900000
2024-03-12T21:10:16.265Z,55.800000
2024-03-12T21:15:16.151Z,55.700000
2024-03-12T21:20:16.150Z,55.400000
2024-03-12T21:25:16.389Z,55.500000
2024-03-12T21:30:16.204Z,55.400000
2024-03-12T21:35:16.178Z,55.300000
2024-03-12T21:40:16.178Z,55.300000
2024-03-12T21:45:16.829Z,55.000000
2024-03-12T21:50:17.787Z,55.100000
2024-03-12T21:55:16.324Z,55.000000
2024-03-12T22:00:16.235Z,54.800000
2024-03-12T22:05:16.261Z,54.800000
2024-03-12T22:10:16.220Z,54.700000
2024-03-12T22:15:16.745Z,54.600000
2024-03-12T22:20:17.811Z,54.400000
2024-03-12T22:25:16.411Z,54.200000
2024-03-12T22:30:16.388Z,54.100000
2024-03-12T22:35:16.308Z,53.800000
2024-03-12T22:40:16.599Z,53.700000
2024-03-12T22:45:16.627Z,53.400000
2024-03-12T22:50:16.329Z,53.300000
2024-03-12T22:55:16.389Z,53.100000
2024-03-12T23:00:16.312Z,52.900000
2024-03-12T23:05:16.404Z,52.800000
2024-03-12T23:10:16.544Z,52.600000
2024-03-12T23:15:16.512Z,52.300000
2024-03-12T23:20:16.332Z,52.100000
2024-03-12T23:25:16.355Z,52.200000
2024-03-12T23:30:16.378Z,52.100000
2024-03-12T23:35:16.370Z,52.000000
2024-03-12T23:40:16.675Z,51.900000
2024-03-12T23:45:16.579Z,51.800000
2024-03-12T23:50:16.395Z,51.500000
2024-03-12T23:55:16.455Z,51.400000
